Time;durP1;ratioP1;P1;durP2;ratioP2;P2;SDS_P1;SDS_P2;PMS_P1;PMS_P2;Temp;Humidity;BMP_temperature;BMP_pressure;BME280_temperature;BME280_humidity;BME280_pressure;Samples;Min_cycle;Max_cycle;Signal;HPM_P1;HPM_P2
2022/05/11 00:01:32;;;;;;;4.25;2.05;;;22.30;98.00;;;;;;4207320;28;20211;-76
2022/05/11 00:03:35;;;;;;;2.20;1.85;;;22.30;98.00;;;;;;4210826;28;20284;-77
2022/05/11 00:05:38;;;;;;;3.35;1.90;;;22.30;98.20;;;;;;4209873;28;20287;-76
2022/05/11 00:07:42;;;;;;;2.65;2.00;;;22.30;98.00;;;;;;4210292;28;21053;-76
2022/05/11 00:09:45;;;;;;;2.58;1.80;;;22.30;98.00;;;;;;4210249;28;20210;-76
2022/05/11 00:11:48;;;;;;;2.78;1.92;;;22.30;98.00;;;;;;4210049;28;20214;-77
2022/05/11 00:13:50;;;;;;;2.65;1.92;;;22.30;98.00;;;;;;4209082;28;20202;-77
2022/05/11 00:15:53;;;;;;;3.97;2.10;;;22.30;98.00;;;;;;4210357;28;20276;-76
2022/05/11 00:17:55;;;;;;;3.90;1.92;;;22.30;98.00;;;;;;4209997;28;20652;-77
2022/05/11 00:19:58;;;;;;;2.42;1.75;;;22.30;98.00;;;;;;4210656;28;20279;-76
2022/05/11 00:22:00;;;;;;;3.45;2.00;;;22.30;98.00;;;;;;4210345;28;20237;-76
2022/05/11 00:24:05;;;;;;;4.07;1.88;;;22.30;98.00;;;;;;4209087;28;20230;-77
2022/05/11 00:26:07;;;;;;;2.15;1.80;;;22.30;98.00;;;;;;4210373;28;20226;-76
2022/05/11 00:28:10;;;;;;;2.50;1.80;;;22.30;98.00;;;;;;4209990;28;20222;-76
2022/05/11 00:30:13;;;;;;;2.22;2.03;;;22.30;98.00;;;;;;4210528;28;20260;-77
2022/05/11 00:32:15;;;;;;;2.10;1.70;;;22.30;98.00;;;;;;4209811;28;20226;-77
2022/05/11 00:34:18;;;;;;;2.30;1.80;;;22.30;98.00;;;;;;4210044;28;20275;-77
2022/05/11 00:36:20;;;;;;;2.35;1.75;;;22.30;98.10;;;;;;4208727;28;21039;-77
2022/05/11 00:38:28;;;;;;;3.53;2.00;;;22.30;98.10;;;;;;4209777;28;20222;-77
2022/05/11 00:40:33;;;;;;;2.75;1.85;;;22.20;98.00;;;;;;4210074;28;20222;-76
2022/05/11 00:42:35;;;;;;;3.03;1.85;;;22.20;98.40;;;;;;4209611;28;20670;-77
2022/05/11 00:44:38;;;;;;;2.00;1.70;;;22.30;98.10;;;;;;4209776;28;20355;-77
2022/05/11 00:46:43;;;;;;;2.55;1.75;;;22.30;98.10;;;;;;4208239;28;20300;-76
2022/05/11 00:51:11;;;;;;;2.63;1.77;;;22.20;98.10;;;;;;4210485;28;20197;-77
2022/05/11 00:53:13;;;;;;;2.85;2.03;;;22.20;98.10;;;;;;4209603;28;20267;-77
2022/05/11 00:55:19;;;;;;;2.08;1.83;;;22.20;98.10;;;;;;4209822;28;20272;-77
2022/05/11 00:57:33;;;;;;;3.10;1.75;;;22.20;98.20;;;;;;4210256;28;20218;-77
2022/05/11 00:59:39;;;;;;;3.28;1.70;;;22.20;98.20;;;;;;4207879;28;20648;-77
2022/05/11 01:01:43;;;;;;;2.22;2.03;;;22.20;98.20;;;;;;4209405;28;20219;-77
2022/05/11 01:03:50;;;;;;;2.20;2.00;;;22.20;98.20;;;;;;4209355;28;20760;-77
2022/05/11 01:05:53;;;;;;;3.45;1.77;;;22.20;98.20;;;;;;4205551;28;20280;-76
2022/05/11 01:07:58;;;;;;;3.83;1.83;;;22.20;98.20;;;;;;4208894;28;20210;-76
2022/05/11 01:10:00;;;;;;;2.30;1.90;;;22.20;98.30;;;;;;4208701;28;20260;-77
2022/05/11 01:12:06;;;;;;;2.17;1.90;;;22.20;98.30;;;;;;4209345;28;20230;-77
2022/05/11 01:14:13;;;;;;;2.42;1.70;;;22.20;98.30;;;;;;4208995;28;20210;-77
2022/05/11 01:16:15;;;;;;;1.98;1.77;;;22.20;98.30;;;;;;4209642;28;20263;-77
2022/05/11 01:18:20;;;;;;;1.65;1.55;;;22.20;98.30;;;;;;4209807;28;20663;-77
2022/05/11 01:20:24;;;;;;;3.33;2.20;;;22.20;98.30;;;;;;4209895;28;20214;-77
2022/05/11 01:22:33;;;;;;;2.47;1.60;;;22.20;98.30;;;;;;4208865;28;20240;-77
2022/05/11 01:24:40;;;;;;;2.80;1.80;;;22.20;98.30;;;;;;4210236;28;20241;-76
2022/05/11 01:26:43;;;;;;;2.20;1.65;;;22.20;98.40;;;;;;4209044;28;20341;-76
2022/05/11 01:28:47;;;;;;;2.63;1.83;;;22.20;98.30;;;;;;4209061;28;20207;-77
2022/05/11 01:30:53;;;;;;;2.67;1.92;;;22.20;98.40;;;;;;4209533;28;20276;-76
2022/05/11 01:32:56;;;;;;;2.17;1.50;;;22.20;98.40;;;;;;4205895;28;20621;-77
2022/05/11 01:35:23;;;;;;;2.45;1.80;;;22.20;98.40;;;;;;4206206;28;20243;-77
2022/05/11 01:37:26;;;;;;;3.10;1.60;;;22.20;98.50;;;;;;4204320;28;20244;-77
2022/05/11 01:39:28;;;;;;;2.70;2.03;;;22.20;98.40;;;;;;4209280;28;20260;-77
2022/05/11 01:41:35;;;;;;;3.15;2.05;;;22.20;98.40;;;;;;4209489;28;20214;-76
2022/05/11 01:43:39;;;;;;;2.03;1.80;;;22.10;98.30;;;;;;4207813;28;20222;-76
2022/05/11 01:45:41;;;;;;;2.17;1.70;;;22.20;98.40;;;;;;4208929;28;20222;-76
2022/05/11 01:47:44;;;;;;;2.03;1.83;;;22.20;98.40;;;;;;4208681;28;20244;-76
2022/05/11 01:49:46;;;;;;;1.73;1.63;;;22.10;98.30;;;;;;4208962;28;20218;-77
2022/05/11 01:51:49;;;;;;;2.33;1.77;;;22.10;98.40;;;;;;4209254;28;20251;-77
2022/05/11 01:53:51;;;;;;;1.92;1.73;;;22.10;98.50;;;;;;4204715;28;20218;-76
2022/05/11 01:55:53;;;;;;;2.00;1.70;;;22.10;98.30;;;;;;4208688;28;20260;-76
2022/05/11 01:57:58;;;;;;;1.80;1.67;;;22.10;98.40;;;;;;4208808;28;20241;-77
2022/05/11 02:00:00;;;;;;;2.60;1.67;;;22.10;98.40;;;;;;4208361;28;20679;-76
2022/05/11 02:02:02;;;;;;;2.90;1.60;;;22.10;98.40;;;;;;4209283;28;20214;-77
2022/05/11 02:07:49;;;;;;;2.28;1.83;;;22.10;98.40;;;;;;4208405;28;20264;-77
2022/05/11 02:08:48;;;;;;;1.98;1.75;;;22.10;98.50;;;;;;4208723;28;20655;-76
2022/05/11 02:10:50;;;;;;;2.15;1.58;;;22.10;98.50;;;;;;4207970;28;20222;-77
2022/05/11 02:12:53;;;;;;;2.38;1.70;;;22.10;98.50;;;;;;4207905;28;20732;-76
2022/05/11 02:14:58;;;;;;;2.83;1.90;;;22.10;98.60;;;;;;4208306;28;20271;-77
2022/05/11 02:17:00;;;;;;;3.60;1.80;;;22.10;98.60;;;;;;4208067;28;20226;-76
2022/05/11 02:19:02;;;;;;;2.05;1.60;;;22.10;98.60;;;;;;4207756;28;20278;-76
2022/05/11 02:21:05;;;;;;;2.30;1.60;;;22.10;98.60;;;;;;4208012;28;20663;-76
2022/05/11 02:23:08;;;;;;;3.15;1.92;;;22.10;98.60;;;;;;4208397;28;20969;-77
2022/05/11 02:25:11;;;;;;;2.58;1.65;;;22.10;98.60;;;;;;4208261;28;20230;-77
2022/05/11 02:27:14;;;;;;;1.65;1.55;;;22.10;98.60;;;;;;4207777;28;20280;-77
2022/05/11 02:29:16;;;;;;;2.10;1.60;;;22.10;98.70;;;;;;4208136;28;20315;-76
2022/05/11 02:31:20;;;;;;;1.85;1.60;;;22.00;98.60;;;;;;4207867;28;20218;-76
2022/05/11 02:33:23;;;;;;;3.05;1.80;;;22.10;98.70;;;;;;4207973;28;20268;-76
2022/05/11 02:35:25;;;;;;;2.45;1.73;;;22.10;98.70;;;;;;4208100;28;21458;-77
2022/05/11 02:37:28;;;;;;;2.88;1.70;;;22.00;98.70;;;;;;4208027;28;20218;-77
2022/05/11 02:39:30;;;;;;;2.35;1.83;;;22.10;98.70;;;;;;4208920;28;20214;-76
2022/05/11 02:41:32;;;;;;;1.77;1.40;;;22.10;98.70;;;;;;4208104;28;20226;-76
2022/05/11 02:43:34;;;;;;;1.73;1.63;;;22.10;98.80;;;;;;4207757;28;20218;-76
2022/05/11 02:45:39;;;;;;;1.95;1.50;;;22.10;98.70;;;;;;4208163;28;20284;-77
2022/05/11 02:47:45;;;;;;;1.90;1.60;;;22.00;98.70;;;;;;4208566;28;21055;-77
2022/05/11 02:49:47;;;;;;;1.77;1.50;;;22.00;98.70;;;;;;4208139;28;20316;-77
2022/05/11 02:51:49;;;;;;;2.63;1.50;;;22.00;98.70;;;;;;4208300;28;20218;-77
2022/05/11 02:53:52;;;;;;;2.40;1.42;;;22.00;98.90;;;;;;4208340;28;20218;-77
2022/05/11 02:55:56;;;;;;;2.08;1.63;;;22.00;98.80;;;;;;4208904;28;20207;-77
2022/05/11 02:57:58;;;;;;;1.83;1.52;;;22.00;99.10;;;;;;4208067;28;20218;-76
2022/05/11 03:00:03;;;;;;;2.67;1.58;;;22.00;98.70;;;;;;4207906;28;20222;-77
2022/05/11 03:02:05;;;;;;;1.70;1.60;;;22.00;98.80;;;;;;4206875;28;20256;-76
2022/05/11 03:04:09;;;;;;;3.10;1.80;;;22.00;98.90;;;;;;4207075;28;20625;-77
2022/05/11 03:06:11;;;;;;;1.65;1.30;;;22.00;98.80;;;;;;4209138;28;20296;-77
2022/05/11 03:08:14;;;;;;;2.92;1.70;;;22.00;98.90;;;;;;4211636;28;20276;-77
2022/05/11 03:10:16;;;;;;;1.23;1.13;;;22.00;98.90;;;;;;4211309;28;20215;-77
2022/05/11 03:12:19;;;;;;;2.28;1.48;;;22.00;98.90;;;;;;4211783;28;20256;-76
2022/05/11 03:14:21;;;;;;;2.35;1.67;;;21.90;98.80;;;;;;4211590;28;20322;-77
2022/05/11 03:16:23;;;;;;;2.10;1.50;;;22.00;98.90;;;;;;4211771;28;20643;-77
2022/05/11 03:18:25;;;;;;;2.13;1.40;;;22.00;98.90;;;;;;4211233;28;20275;-77
2022/05/11 03:20:29;;;;;;;2.28;1.55;;;21.90;98.90;;;;;;4211717;28;20275;-76
2022/05/11 03:22:32;;;;;;;2.95;1.67;;;22.00;99.00;;;;;;4208622;28;20276;-77
2022/05/11 03:24:34;;;;;;;2.20;1.40;;;21.90;99.00;;;;;;4209531;28;20218;-77
2022/05/11 03:26:36;;;;;;;1.80;1.55;;;21.90;99.00;;;;;;4211200;28;20623;-76
2022/05/11 03:28:39;;;;;;;2.42;1.42;;;22.00;99.00;;;;;;4210989;28;20267;-76
2022/05/11 03:30:41;;;;;;;1.98;1.73;;;21.90;98.90;;;;;;4211656;28;20663;-76
2022/05/11 03:35:04;;;;;;;2.78;1.63;;;21.90;99.00;;;;;;4211329;28;20202;-76
2022/05/11 03:37:10;;;;;;;2.50;1.75;;;21.90;99.00;;;;;;4211583;28;20284;-77
2022/05/11 03:39:13;;;;;;;1.95;1.60;;;21.90;99.00;;;;;;4210442;28;20268;-77
2022/05/11 03:41:16;;;;;;;2.65;1.70;;;21.90;99.00;;;;;;4209376;28;20736;-76
2022/05/11 03:43:19;;;;;;;1.50;1.40;;;21.90;99.00;;;;;;4209399;28;20724;-77
2022/05/11 03:45:23;;;;;;;2.10;1.40;;;21.90;99.00;;;;;;4210682;28;20275;-77
2022/05/11 03:47:25;;;;;;;2.47;1.80;;;21.90;99.00;;;;;;4211515;28;20268;-77
2022/05/11 03:49:28;;;;;;;3.22;1.65;;;21.90;99.00;;;;;;4210939;28;20655;-77
2022/05/11 03:51:31;;;;;;;2.42;1.80;;;21.90;99.00;;;;;;4210863;28;20736;-77
2022/05/11 03:53:37;;;;;;;2.05;1.63;;;21.90;99.00;;;;;;4210598;28;20291;-76
2022/05/11 03:55:39;;;;;;;2.25;1.50;;;21.90;99.00;;;;;;4208582;28;20640;-77
2022/05/11 03:57:42;;;;;;;2.60;1.70;;;21.80;99.10;;;;;;4208867;28;20218;-77
2022/05/11 03:59:44;;;;;;;2.58;1.50;;;21.90;99.00;;;;;;4209976;28;20218;-77
2022/05/11 04:01:47;;;;;;;2.17;1.60;;;21.80;99.10;;;;;;4209888;28;20284;-76
2022/05/11 04:03:49;;;;;;;1.35;1.20;;;21.90;99.20;;;;;;4211209;28;20267;-77
2022/05/11 04:05:52;;;;;;;3.15;1.77;;;21.90;99.10;;;;;;4210112;28;20238;-77
2022/05/11 04:07:55;;;;;;;1.52;1.42;;;21.90;99.10;;;;;;4210412;28;20708;-76
2022/05/11 04:10:00;;;;;;;2.30;1.55;;;21.80;99.20;;;;;;4211138;28;20606;-76
2022/05/11 04:12:02;;;;;;;2.58;1.65;;;21.80;99.20;;;;;;4210205;28;20286;-77
2022/05/11 04:14:05;;;;;;;4.47;1.70;;;21.80;99.20;;;;;;4210404;28;20218;-77
2022/05/11 04:16:08;;;;;;;1.65;1.10;;;21.80;99.10;;;;;;4208852;28;20644;-77
2022/05/11 04:18:10;;;;;;;2.67;1.88;;;21.80;99.20;;;;;;4208709;28;20286;-76
2022/05/11 04:20:15;;;;;;;2.35;1.33;;;21.80;99.20;;;;;;4210130;28;20271;-77
2022/05/11 04:22:17;;;;;;;1.70;1.50;;;21.80;99.30;;;;;;4208559;28;20227;-77
2022/05/11 04:24:20;;;;;;;2.67;1.58;;;21.80;99.20;;;;;;4210294;28;20272;-77
2022/05/11 04:26:24;;;;;;;1.92;1.60;;;21.80;99.30;;;;;;4209730;28;20272;-77
2022/05/11 04:28:26;;;;;;;2.38;1.42;;;21.80;99.30;;;;;;4210243;28;20222;-76
2022/05/11 04:30:31;;;;;;;1.67;1.40;;;21.70;99.30;;;;;;4210530;28;20222;-77
2022/05/11 04:32:33;;;;;;;2.17;1.80;;;21.80;99.40;;;;;;4209318;28;20222;-77
2022/05/11 04:34:38;;;;;;;2.20;1.75;;;21.80;99.50;;;;;;4210815;28;20291;-78
2022/05/11 04:36:41;;;;;;;1.40;1.30;;;21.80;99.40;;;;;;4207856;28;20632;-78
2022/05/11 04:38:43;;;;;;;2.08;1.67;;;21.80;99.50;;;;;;4210000;28;20259;-77
2022/05/11 04:40:45;;;;;;;2.40;1.70;;;21.70;99.50;;;;;;4209332;28;20244;-78
2022/05/11 04:42:49;;;;;;;2.38;1.45;;;21.80;99.50;;;;;;4210131;28;20272;-77
2022/05/11 04:44:53;;;;;;;2.45;1.67;;;21.80;99.50;;;;;;4209971;28;20206;-78
2022/05/11 04:46:56;;;;;;;1.42;1.33;;;21.70;99.50;;;;;;4209715;28;20234;-78
2022/05/11 04:49:16;;;;;;;2.30;1.25;;;21.80;99.60;;;;;;4208859;28;20276;-78
2022/05/11 04:51:18;;;;;;;1.88;1.42;;;21.80;99.60;;;;;;4208926;28;20627;-78
2022/05/11 04:53:21;;;;;;;2.40;1.70;;;21.70;99.50;;;;;;4209925;28;20230;-78
2022/05/11 04:55:24;;;;;;;1.80;1.70;;;21.70;99.50;;;;;;4210390;28;20214;-77
2022/05/11 04:57:26;;;;;;;2.65;1.70;;;21.70;99.60;;;;;;4210072;28;20214;-78
2022/05/11 04:59:30;;;;;;;1.90;1.40;;;21.80;99.60;;;;;;4209287;28;20267;-77
2022/05/11 05:01:32;;;;;;;3.58;1.70;;;21.80;99.70;;;;;;4210456;28;20237;-78
2022/05/11 05:03:35;;;;;;;1.52;1.40;;;21.70;99.60;;;;;;4208865;28;20311;-77
2022/05/11 05:05:38;;;;;;;2.30;1.67;;;21.80;99.70;;;;;;4209104;28;20252;-77
2022/05/11 05:07:41;;;;;;;2.20;1.40;;;21.80;99.70;;;;;;4209454;28;20659;-77
2022/05/11 05:09:44;;;;;;;2.03;1.40;;;21.70;99.60;;;;;;4208386;28;20280;-78
2022/05/11 05:11:47;;;;;;;1.50;1.40;;;21.70;99.70;;;;;;4203929;28;20263;-77
2022/05/11 05:13:50;;;;;;;1.98;1.48;;;21.80;99.80;;;;;;4208838;28;20268;-77
2022/05/11 05:15:57;;;;;;;2.65;1.45;;;21.80;99.80;;;;;;4208570;28;20659;-78
2022/05/11 05:18:01;;;;;;;1.98;1.50;;;21.70;99.80;;;;;;4209457;28;20666;-78
2022/05/11 05:20:07;;;;;;;2.40;1.52;;;21.80;99.80;;;;;;4208401;28;20223;-77
2022/05/11 05:22:09;;;;;;;1.88;1.45;;;21.70;99.70;;;;;;4208822;28;20264;-78
2022/05/11 05:24:11;;;;;;;1.80;1.50;;;21.80;99.80;;;;;;4207320;28;20227;-78
2022/05/11 05:26:14;;;;;;;2.63;1.20;;;21.80;99.80;;;;;;4207917;28;20245;-78
2022/05/11 05:32:58;;;;;;;3.67;1.45;;;21.80;99.80;;;;;;4208671;28;20206;-77
2022/05/11 05:35:01;;;;;;;2.63;1.60;;;21.80;99.80;;;;;;4208269;28;20218;-78
2022/05/11 05:37:04;;;;;;;2.70;1.42;;;21.80;99.90;;;;;;4207667;28;20691;-77
2022/05/11 05:39:07;;;;;;;1.75;1.20;;;21.80;99.90;;;;;;4208703;28;20264;-77
2022/05/11 05:41:11;;;;;;;2.55;1.58;;;21.80;99.90;;;;;;4207606;28;20210;-78
2022/05/11 05:43:14;;;;;;;2.10;1.50;;;21.80;99.90;;;;;;4207800;28;20475;-78
2022/05/11 05:45:16;;;;;;;1.98;1.45;;;21.80;99.90;;;;;;4207986;28;20222;-77
2022/05/11 05:47:19;;;;;;;3.08;1.80;;;21.80;99.90;;;;;;4207845;28;20287;-78
2022/05/11 05:49:23;;;;;;;3.08;1.38;;;21.80;99.90;;;;;;4209030;28;20270;-78
2022/05/11 05:51:26;;;;;;;2.50;1.52;;;21.80;99.90;;;;;;4207827;28;20215;-77
2022/05/11 05:53:28;;;;;;;1.58;1.23;;;21.80;99.90;;;;;;4205654;28;20226;-77
2022/05/11 05:55:31;;;;;;;2.15;1.40;;;21.80;99.90;;;;;;4208220;28;20214;-78
2022/05/11 05:57:33;;;;;;;1.88;1.35;;;21.80;99.90;;;;;;4207533;28;20331;-78
2022/05/11 05:59:35;;;;;;;2.58;1.60;;;21.80;99.90;;;;;;4207316;28;20659;-77
2022/05/11 06:01:38;;;;;;;2.17;1.50;;;21.80;99.90;;;;;;4207714;28;20628;-78
2022/05/11 06:03:41;;;;;;;1.83;1.40;;;21.80;99.90;;;;;;4207863;28;20268;-77
2022/05/11 06:05:44;;;;;;;2.90;1.35;;;21.80;99.90;;;;;;4208449;28;20232;-78
2022/05/11 06:07:47;;;;;;;1.80;1.40;;;21.80;99.90;;;;;;4206512;28;20230;-77
2022/05/11 06:09:51;;;;;;;3.03;1.50;;;21.80;99.90;;;;;;4208002;28;20240;-78
2022/05/11 06:11:53;;;;;;;1.95;1.40;;;21.80;99.90;;;;;;4207570;28;20214;-77
2022/05/11 06:13:59;;;;;;;2.95;1.50;;;21.80;99.90;;;;;;4207244;28;20712;-77
2022/05/11 06:16:02;;;;;;;1.98;1.20;;;21.80;99.90;;;;;;4208584;28;20248;-78
2022/05/11 06:18:07;;;;;;;2.05;1.38;;;21.80;99.90;;;;;;4208958;28;20268;-78
2022/05/11 06:20:10;;;;;;;2.22;1.35;;;21.80;99.90;;;;;;4209054;28;20256;-77
2022/05/11 06:22:14;;;;;;;1.67;1.10;;;21.80;99.90;;;;;;4208296;28;20267;-78
2022/05/11 06:24:17;;;;;;;3.15;1.48;;;21.80;99.90;;;;;;4208942;28;20222;-78
2022/05/11 06:26:20;;;;;;;2.28;1.52;;;21.80;99.90;;;;;;4207916;28;20346;-77
2022/05/11 06:28:22;;;;;;;1.80;1.20;;;21.80;99.90;;;;;;4207290;28;20223;-78
2022/05/11 06:30:25;;;;;;;2.72;1.52;;;21.80;99.90;;;;;;4207106;28;20234;-78
2022/05/11 06:32:28;;;;;;;2.45;1.48;;;21.80;99.90;;;;;;4207117;28;20283;-78
2022/05/11 06:34:31;;;;;;;2.95;1.65;;;21.80;99.90;;;;;;4206923;28;20276;-77
2022/05/11 06:36:33;;;;;;;2.03;1.45;;;21.80;99.90;;;;;;4206439;28;20222;-78
2022/05/11 06:38:37;;;;;;;2.45;1.48;;;21.80;99.90;;;;;;4206671;28;20223;-77
2022/05/11 06:40:39;;;;;;;1.95;1.30;;;21.80;99.90;;;;;;4207364;28;20275;-77
2022/05/11 06:42:42;;;;;;;3.40;1.63;;;21.80;99.90;;;;;;4210549;28;20222;-77
2022/05/11 06:44:47;;;;;;;2.33;1.27;;;21.80;99.90;;;;;;4210489;28;20214;-77
2022/05/11 06:46:50;;;;;;;3.40;1.50;;;21.80;99.90;;;;;;4210768;28;20702;-78
2022/05/11 06:48:53;;;;;;;2.60;1.25;;;21.80;99.90;;;;;;4210016;28;20272;-78
2022/05/11 06:50:55;;;;;;;2.28;1.35;;;21.80;99.90;;;;;;4209346;28;20218;-77
2022/05/11 06:52:58;;;;;;;10.02;1.85;;;21.80;99.90;;;;;;4210036;28;20260;-77
2022/05/11 06:59:41;;;;;;;4.22;1.65;;;21.20;97.50;;;;;;4208763;28;20198;-78
2022/05/11 07:01:43;;;;;;;7.43;1.60;;;21.00;96.60;;;;;;4210400;28;20260;-79
2022/05/11 07:03:46;;;;;;;5.40;1.63;;;20.90;96.40;;;;;;4208937;28;20284;-79
2022/05/11 07:05:48;;;;;;;5.78;1.52;;;20.90;96.10;;;;;;4211225;28;20242;-79
2022/05/11 07:07:52;;;;;;;9.43;2.00;;;20.80;95.90;;;;;;4211499;28;20234;-76
2022/05/11 07:09:54;;;;;;;5.97;1.63;;;20.70;95.60;;;;;;4213570;28;20263;-78
2022/05/11 07:14:18;;;;;;;3.35;1.33;;;20.60;95.10;;;;;;4213351;28;20199;-76
2022/05/11 07:16:21;;;;;;;5.03;1.70;;;20.80;95.20;;;;;;4211385;28;20267;-77
2022/05/11 07:18:23;;;;;;;4.18;1.45;;;20.70;94.90;;;;;;4205816;28;20218;-77
2022/05/11 07:20:30;;;;;;;5.95;1.25;;;20.80;94.50;;;;;;4211968;28;20214;-76
2022/05/11 07:22:33;;;;;;;5.38;1.50;;;20.80;94.50;;;;;;4209145;28;20736;-76
2022/05/11 07:24:35;;;;;;;12.23;1.45;;;20.80;94.30;;;;;;4211494;28;20206;-76
2022/05/11 07:26:37;;;;;;;6.13;1.25;;;20.80;94.30;;;;;;4211835;28;20588;-77
2022/05/11 07:28:41;;;;;;;4.32;1.63;;;20.80;94.20;;;;;;4212352;28;20246;-79
2022/05/11 07:30:47;;;;;;;4.32;1.50;;;20.80;93.90;;;;;;4213275;28;20208;-78
2022/05/11 07:32:49;;;;;;;7.05;1.60;;;21.00;93.80;;;;;;4211030;28;20568;-79
2022/05/11 07:34:54;;;;;;;3.97;1.10;;;20.90;94.00;;;;;;4203176;28;20264;-78
2022/05/11 07:36:58;;;;;;;3.28;1.40;;;20.90;93.90;;;;;;4201295;28;20276;-78
2022/05/11 07:39:04;;;;;;;3.88;1.60;;;20.90;93.90;;;;;;4207605;28;20223;-77
2022/05/11 07:41:07;;;;;;;6.45;1.52;;;20.90;93.70;;;;;;4210058;28;20230;-78
2022/05/11 07:43:10;;;;;;;4.38;1.33;;;21.00;93.60;;;;;;4210518;28;20276;-76
2022/05/11 07:45:15;;;;;;;4.05;1.15;;;21.10;93.50;;;;;;4209383;28;20370;-76
2022/05/11 07:47:18;;;;;;;7.70;1.63;;;21.20;93.30;;;;;;4211874;28;20299;-80
2022/05/11 07:49:21;;;;;;;4.20;1.20;;;21.30;94.00;;;;;;4210888;28;20226;-78
2022/05/11 07:51:23;;;;;;;7.60;1.70;;;21.40;93.10;;;;;;4209245;28;20617;-78
2022/05/11 07:53:26;;;;;;;3.80;1.27;;;21.50;92.90;;;;;;4201601;28;20218;-78
2022/05/11 07:55:29;;;;;;;5.80;1.38;;;21.50;92.90;;;;;;4206536;28;20214;-78
2022/05/11 07:59:52;;;;;;;6.90;1.42;;;21.70;93.50;;;;;;4202199;28;20210;-76
2022/05/11 08:01:56;;;;;;;8.07;1.52;;;21.70;92.80;;;;;;4207854;28;20195;-75
2022/05/11 08:03:58;;;;;;;5.35;1.50;;;21.60;92.50;;;;;;4208208;28;20260;-77
2022/05/11 08:06:00;;;;;;;4.72;1.55;;;21.60;92.60;;;;;;4203932;28;20247;-76
2022/05/11 08:10:57;;;;;;;5.40;1.45;;;21.70;92.90;;;;;;4102980;28;20875;-77
2022/05/11 08:13:04;;;;;;;7.32;1.38;;;21.70;92.50;;;;;;4203693;28;20202;-82
2022/05/11 08:18:18;;;;;;;5.82;1.60;;;21.60;93.10;;;;;;4193732;28;20206;-80
2022/05/11 08:20:24;;;;;;;25.98;3.25;;;21.60;93.50;;;;;;4205347;28;20267;-78
2022/05/11 08:22:27;;;;;;;7.85;1.77;;;21.60;93.70;;;;;;4210191;28;20342;-81
2022/05/11 08:24:31;;;;;;;8.77;1.65;;;21.70;93.90;;;;;;4202146;28;20283;-79
2022/05/11 08:26:33;;;;;;;4.30;1.75;;;21.80;93.70;;;;;;4210663;28;20218;-78
2022/05/11 08:28:36;;;;;;;4.97;1.70;;;21.80;94.10;;;;;;4209409;28;20234;-79
2022/05/11 08:35:19;;;;;;;8.00;1.80;;;21.90;93.90;;;;;;4208958;28;20210;-79
2022/05/11 08:39:38;;;;;;;11.95;1.80;;;21.80;94.20;;;;;;4203556;28;20268;-80
2022/05/11 08:41:56;;;;;;;8.00;1.67;;;22.00;94.40;;;;;;4207842;28;20214;-79
2022/05/11 08:44:01;;;;;;;22.20;2.70;;;21.90;94.40;;;;;;4204086;28;20223;-80
2022/05/11 08:46:12;;;;;;;15.73;2.70;;;22.00;94.90;;;;;;4208116;28;20248;-78
2022/05/11 08:48:22;;;;;;;18.45;2.80;;;22.10;95.00;;;;;;4189006;28;20331;-77
2022/05/11 08:50:29;;;;;;;10.68;2.45;;;22.20;94.90;;;;;;4203100;28;20271;-76
2022/05/11 08:52:45;;;;;;;10.27;2.08;;;22.20;94.00;;;;;;4209127;28;20223;-77
2022/05/11 08:54:50;;;;;;;5.35;1.75;;;22.10;93.80;;;;;;4203802;28;20215;-78
2022/05/11 08:56:55;;;;;;;11.77;2.20;;;22.10;94.00;;;;;;4204297;28;20226;-78
2022/05/11 08:58:57;;;;;;;9.40;2.22;;;22.20;94.10;;;;;;4207103;28;20279;-78
2022/05/11 09:01:02;;;;;;;7.97;1.75;;;22.20;94.20;;;;;;4203811;28;20264;-79
2022/05/11 09:03:11;;;;;;;7.95;1.90;;;22.20;94.40;;;;;;4202663;28;20273;-79
2022/05/11 09:05:14;;;;;;;6.93;1.95;;;22.20;94.40;;;;;;4207413;28;20613;-77
2022/05/11 09:07:18;;;;;;;7.95;1.77;;;22.20;94.40;;;;;;4205046;28;20242;-77
2022/05/11 09:09:53;;;;;;;10.88;2.08;;;22.30;94.80;;;;;;4212136;28;20628;-76
2022/05/11 09:11:57;;;;;;;7.35;2.03;;;22.30;94.70;;;;;;4201277;28;20209;-79
2022/05/11 09:14:00;;;;;;;8.27;1.83;;;22.30;94.80;;;;;;4208584;28;20276;-78
2022/05/11 09:16:05;;;;;;;8.80;2.20;;;22.30;94.60;;;;;;4208802;28;20275;-80
2022/05/11 09:18:08;;;;;;;5.97;1.90;;;22.30;94.80;;;;;;4206392;28;20219;-77
2022/05/11 09:20:13;;;;;;;10.35;2.17;;;22.40;95.20;;;;;;4204257;28;20215;-77
2022/05/11 09:22:24;;;;;;;7.53;1.98;;;22.40;95.40;;;;;;4204395;28;20276;-80
2022/05/11 09:24:32;;;;;;;9.30;2.38;;;22.40;95.40;;;;;;4203019;28;20214;-80
2022/05/11 09:26:37;;;;;;;9.20;2.25;;;22.40;95.20;;;;;;4201060;28;20263;-78
2022/05/11 09:28:42;;;;;;;6.47;1.90;;;22.30;95.20;;;;;;4204051;28;20243;-79
2022/05/11 09:31:01;;;;;;;5.00;1.50;;;22.40;95.50;;;;;;4197905;28;20223;-76
2022/05/11 09:33:19;;;;;;;5.78;1.75;;;22.50;95.70;;;;;;4200542;28;20210;-77
2022/05/11 09:35:25;;;;;;;12.43;2.45;;;22.50;95.70;;;;;;4202016;28;20260;-78
2022/05/11 09:37:35;;;;;;;11.68;2.30;;;22.50;95.80;;;;;;4206583;28;20218;-79
2022/05/11 09:39:52;;;;;;;11.20;2.40;;;22.50;95.70;;;;;;4204891;28;20272;-79
2022/05/11 09:42:01;;;;;;;8.80;2.20;;;22.50;95.70;;;;;;4206358;28;20636;-81
2022/05/11 09:44:18;;;;;;;8.75;2.00;;;22.50;95.70;;;;;;4206144;28;20221;-79
2022/05/11 09:46:30;;;;;;;10.55;1.90;;;22.50;95.70;;;;;;4203498;28;20275;-79
2022/05/11 09:48:54;;;;;;;7.28;2.28;;;22.50;95.90;;;;;;4204748;28;20226;-79
2022/05/11 09:51:15;;;;;;;10.40;1.80;;;22.50;96.00;;;;;;4204065;28;20218;-77
2022/05/11 09:53:38;;;;;;;6.60;1.50;;;22.60;96.20;;;;;;4202765;28;20635;-77
2022/05/11 09:55:40;;;;;;;6.85;1.95;;;22.60;96.20;;;;;;4197241;28;20235;-76
2022/05/11 09:57:54;;;;;;;7.65;2.05;;;22.50;96.20;;;;;;4204006;28;20248;-77
2022/05/11 10:00:18;;;;;;;14.18;2.15;;;22.50;96.40;;;;;;4196319;28;20263;-77
2022/05/11 10:02:26;;;;;;;9.80;2.10;;;22.50;96.50;;;;;;4203951;28;20222;-78
2022/05/11 10:04:34;;;;;;;7.03;2.00;;;22.50;96.60;;;;;;4207003;28;20673;-77
2022/05/11 10:06:51;;;;;;;12.10;2.15;;;22.60;96.70;;;;;;4205812;28;20682;-79
2022/05/11 10:08:55;;;;;;;5.68;1.80;;;22.60;96.60;;;;;;4202703;28;20279;-79
2022/05/11 10:11:05;;;;;;;7.05;2.20;;;22.60;96.60;;;;;;4207811;28;20280;-79
2022/05/11 10:13:16;;;;;;;9.45;1.92;;;22.50;96.80;;;;;;4205930;28;20937;-78
2022/05/11 10:22:35;;;;;;;7.15;2.00;;;22.60;96.80;;;;;;4205200;28;20218;-77
2022/05/11 10:24:54;;;;;;;5.63;1.95;;;22.70;97.20;;;;;;4208466;28;20247;-77
2022/05/11 10:27:04;;;;;;;8.07;1.85;;;22.70;97.10;;;;;;4200516;28;20218;-78
2022/05/11 10:29:19;;;;;;;6.50;1.58;;;22.70;97.30;;;;;;4203879;28;20242;-78
2022/05/11 10:31:31;;;;;;;7.22;1.80;;;22.60;97.10;;;;;;4204660;28;20647;-78
2022/05/11 10:34:00;;;;;;;5.22;1.77;;;22.60;97.00;;;;;;4200997;28;20230;-78
2022/05/11 10:36:08;;;;;;;4.47;1.70;;;22.70;97.00;;;;;;4202402;28;20339;-78
2022/05/11 10:38:48;;;;;;;6.63;2.00;;;22.70;97.10;;;;;;4200522;28;20263;-77
2022/05/11 10:40:59;;;;;;;6.40;1.83;;;22.70;97.10;;;;;;4199651;28;20267;-77
2022/05/11 10:43:16;;;;;;;6.60;1.63;;;22.70;97.10;;;;;;4205611;28;20218;-77
2022/05/11 10:45:22;;;;;;;3.80;1.63;;;22.70;97.20;;;;;;4203018;28;20264;-78
2022/05/11 10:47:41;;;;;;;6.22;2.00;;;22.70;97.20;;;;;;4201734;28;20268;-78
2022/05/11 10:49:58;;;;;;;5.38;1.73;;;22.70;97.20;;;;;;4206788;28;20629;-81
2022/05/11 10:52:18;;;;;;;5.75;1.70;;;22.70;97.20;;;;;;4203924;28;20307;-78
2022/05/11 10:54:29;;;;;;;4.82;1.83;;;22.70;97.20;;;;;;4206610;28;20271;-76
2022/05/11 10:56:46;;;;;;;6.75;1.90;;;22.80;97.30;;;;;;4206001;28;20624;-77
2022/05/11 10:59:13;;;;;;;6.43;1.73;;;22.70;97.30;;;;;;4207447;28;20210;-77
2022/05/11 11:01:17;;;;;;;7.10;2.13;;;22.80;97.30;;;;;;4189142;28;20632;-77
2022/05/11 11:03:41;;;;;;;3.92;1.50;;;22.80;97.60;;;;;;4204757;28;20230;-75
2022/05/11 11:08:22;;;;;;;4.47;1.88;;;22.80;97.50;;;;;;4203240;28;20264;-78
2022/05/11 11:10:34;;;;;;;8.60;1.52;;;22.80;97.60;;;;;;4205438;28;20252;-77
2022/05/11 11:13:03;;;;;;;5.10;1.80;;;22.80;97.50;;;;;;4207032;28;20282;-78
2022/05/11 11:15:12;;;;;;;5.55;1.77;;;22.80;97.60;;;;;;4201673;28;20218;-77
2022/05/11 11:17:20;;;;;;;5.18;1.92;;;22.80;97.90;;;;;;4202004;28;20244;-76
2022/05/11 11:19:24;;;;;;;5.68;1.80;;;22.80;97.60;;;;;;4207976;28;20227;-77
2022/05/11 11:21:27;;;;;;;4.13;1.92;;;22.80;97.60;;;;;;4204605;28;20218;-79
2022/05/11 11:23:33;;;;;;;5.93;2.03;;;22.80;97.80;;;;;;4204093;28;20740;-78
2022/05/11 11:25:48;;;;;;;8.85;1.90;;;22.70;97.60;;;;;;4201729;28;20218;-78
2022/05/11 11:28:08;;;;;;;8.18;1.95;;;22.70;97.80;;;;;;4199034;28;20219;-79
2022/05/11 11:30:21;;;;;;;6.18;2.08;;;22.70;97.80;;;;;;4206215;28;20238;-77
2022/05/11 11:32:24;;;;;;;9.60;2.10;;;22.60;97.80;;;;;;4206939;28;20259;-77
2022/05/11 11:34:29;;;;;;;7.45;2.00;;;22.60;97.80;;;;;;4201930;28;20257;-77
2022/05/11 11:36:34;;;;;;;7.25;1.98;;;22.70;97.90;;;;;;4206162;28;20283;-77